Terminal Aerodrome Forecast
Issued by NWS Cleveland, OH

Home | Current Version | Previous Version | Graphics & Text | Print | Product List | Glossary On
Versions: 1 2 3 4 5 6 7 8 9 10 11 12 13 14 15
000
FTUS41 KCLE 270527
TAFMFD
TAF
KMFD 270527Z 2706/2806 27003KT P6SM OVC050
     FM271100 00000KT 6SM BR BKN050
      TEMPO 2711/2713 3SM BR SCT050
     FM271400 35004KT P6SM SCT020
      TEMPO 2714/2717 BKN020
     FM271700 01005KT P6SM BKN040
     FM280100 VRB03KT P6SM FEW040=

USA.gov is the U.S. government's official web portal to all federal, state and local government web resources and services.